Terminal Aerodrome Forecast
Issued by NWS

Home | Current Version | Previous Version | Text Only | Print | Product List | Glossary On
Versions: 1 2 3 4 5 6 7 8 9 10 11 12 13 14 15 16 17 18 19 20
001
FTAK31 PAJN 042207 AAA
TAFAGY
TAF AMD
PAGY 042207Z 0422/0518 02012G22KT P6SM SCT070
     FM050000 03020G30KT P6SM SCT100
      AMD LTD TO CLD VIS AND WIND=

USA.gov is the U.S. government's official web portal to all federal, state and local government web resources and services.